Home > Products > Valid Products > SSM

000
SMZS01 NSTU 301158
SSMPPG
AAXX 30124
91765 32566 61416 10239 20170 30141 40144 57008 83170 333 10270
563// 58005 555 93012=




000
SMZS01 NSTU 301158
SSMPPG
AAXX 30124
91765 32566 61416 10239 20170 30141 40144 57008 83170 333 10270
563// 58005 555 93012=




000
SMZS01 NSTU 300555
SSMPPG
AAXX 30064
91765 32566 61412 10242 20167 30135 40139 53017 86100 333 563//
70010 555 93006=




000
SMZS01 NSTU 292357
SSMPPG
AAXX 30004
91765 12569 31514 10269 20183 30129 40132 57017 60014 81171 333
20238 56399 59002 70010 555 93000=




000
SMZS01 NSTU 292357
SSMPPG
AAXX 30004
91765 12569 31514 10269 20183 30129 40132 57017 60014 81171 333
20238 56399 59002 70010 555 93000=




000
SMZS01 NSTU 291756
SSMPPG
AAXX 29184
91765 11569 41715 10239 20176 30130 40134 52010 69901 70282 82171
333 5649/ 70010 555 92918=




000
SMZS01 NSTU 291756
SSMPPG
AAXX 29184
91765 11569 41715 10239 20176 30130 40134 52010 69901 70282 82171
333 5649/ 70010 555 92918=




000
SMZS01 NSTU 291203
SSMPPG
AAXX 29124
91765 11562 81617 10240 20204 30135 40139 57002 60011 78082 8427/
333 10276 564// 58012 70010 555 92912=




000
SMZS01 NSTU 291203
SSMPPG
AAXX 29124
91765 11562 81617 10240 20204 30135 40139 57002 60011 78082 8427/
333 10276 564// 58012 70010 555 92912=




000
SMZS01 NSTU 290553
SSMPPG
AAXX 29064
91765 32566 71514 10251 20200 30124 40127 51010 87200 333 563//
70008 555 92906=




000
SMZS01 NSTU 290553
SSMPPG
AAXX 29064
91765 32566 71514 10251 20200 30124 40127 51010 87200 333 563//
70008 555 92906=




000
SMZS01 NSTU 282353
SSMPPG
AAXX 29004
91765 12569 51414 10269 20201 30130 40134 57015 69984 85400 333
20234 563// 58017 70008 555 92900=




000
SMZS01 NSTU 282353
SSMPPG
AAXX 29004
91765 12569 51414 10269 20201 30130 40134 57015 69984 85400 333
20234 563// 58017 70008 555 92900=




000
SMZS01 NSTU 281757
SSMPPG
AAXX 28184
91765 11569 71516 10248 20205 30127 40130 52014 69901 70282 85470
333 5639/ 70008 555 92818=




000
SMZS01 NSTU 281757
SSMPPG
AAXX 28184
91765 11569 71516 10248 20205 30127 40130 52014 69901 70282 85470
333 5639/ 70008 555 92818=




000
SMZS01 NSTU 281217
SSMPPG
AAXX 28124
91765 11466 81416 10245 20217 30124 40127 54000 69901 78002 8327/
333 10281 563// 58002 555 92812=




000
SMZS01 NSTU 281217
SSMPPG
AAXX 28124
91765 11466 81416 10245 20217 30124 40127 54000 69901 78002 8327/
333 10281 563// 58002 555 92812=




000
SMZS01 NSTU 281215
SSMPPG
AAXX 28124
91765 11466 81416 10245 20217 30124 40127 54000 69981 78082 8317/
333 10281 563// 58002 70008 555 92812=




000
SMZS01 NSTU 281215
SSMPPG
AAXX 28124
91765 11466 81416 10245 20217 30124 40127 54000 69981 78082 8317/
333 10281 563// 58002 70008 555 92812=




000
SMZS01 NSTU 281212 COR

SSMPPG
AAXX 28124
91765 11466 81416 10245 20217 30124 40127 54000 69981 78082 8317/
333 10281 563// 58002 70008 555 92812=




000
SMZS01 NSTU 281212 COR

SSMPPG
AAXX 28124
91765 11466 81416 10245 20217 30124 40127 54000 69981 78082 8317/
333 10281 563// 58002 70008 555 92812=




000
SMZS01 NSTU 281201 COR

SSMPPG
AAXX 28124
91765 11466 81416 10245 20217 30124 40127 54000 69901 78082 8317/
333 10281 563// 58002 555 92812=




000
SMZS01 NSTU 281201 COR

SSMPPG
AAXX 28124
91765 11466 81416 10245 20217 30124 40127 54000 69901 78082 8317/
333 10281 563// 58002 555 92812=




000
SMZS01 NSTU 280557
SSMPPG
AAXX 28064
91765 32566 61512 10253 20216 30108 40112 51012 86200 333 563//
70000 555 92806=




000
SMZS01 NSTU 272355
SSMPPG
AAXX 28004
91765 32569 21408 10281 20195 30113 40117 57015 8110I 333 20246
563/9 58000 555 92800=




000
SMZS01 NSTU 272355
SSMPPG
AAXX 28004
91765 32569 21408 10281 20195 30113 40117 57015 8110I 333 20246
563/9 58000 555 92800=




    US Dept of Commerce
    National Oceanic and Atmospheric Administration
    National Weather Service
    1325 East West Highway
    Silver Spring, MD 20910
    Page Author: NWS Internet Services Team
Disclaimer
Information Quality
Credits
Glossary
Privacy Policy
Freedom of Information Act (FOIA)
About Us
Career Opportunities